Time;durP1;ratioP1;P1;durP2;ratioP2;P2;SDS_P1;SDS_P2;PMS_P1;PMS_P2;Temp;Humidity;BMP_temperature;BMP_pressure;BME280_temperature;BME280_humidity;BME280_pressure;Samples;Min_cycle;Max_cycle;Signal;HPM_P1;HPM_P2
2024/01/14 00:00:43;;;;;;;;;1.50;1.50;;;;;1.97;100.00;101777.72;5043588;28;45342;-85
2024/01/14 00:03:08;;;;;;;;;0.00;0.00;;;;;1.96;100.00;101773.41;5075858;28;48204;-86
2024/01/14 00:05:33;;;;;;;;;1.33;1.33;;;;;1.97;100.00;101771.72;5060240;28;45422;-86
2024/01/14 00:07:59;;;;;;;;;0.00;0.00;;;;;1.90;100.00;101763.88;5043582;28;45430;-86
2024/01/14 00:10:24;;;;;;;;;1.00;1.00;;;;;1.90;100.00;101766.44;5039453;28;45324;-85
2024/01/14 00:12:50;;;;;;;;;0.00;0.00;;;;;1.87;100.00;101758.66;5040153;28;46100;-86
2024/01/14 00:15:17;;;;;;;;;0.00;0.00;;;;;1.85;100.00;101756.91;5057869;28;45481;-86
2024/01/14 00:17:43;;;;;;;;;7.00;3.00;;;;;1.85;100.00;101757.75;5040049;28;45226;-85
2024/01/14 00:20:09;;;;;;;;;1.50;1.50;;;;;1.87;100.00;101748.38;5022645;28;45553;-86
2024/01/14 00:22:34;;;;;;;;;0.00;0.00;;;;;1.85;100.00;101755.19;5039860;28;47236;-85
2024/01/14 00:24:59;;;;;;;;;0.00;0.00;;;;;1.83;100.00;101736.31;5039663;28;45304;-86
2024/01/14 00:27:25;;;;;;;;;0.00;0.00;;;;;1.80;100.00;101727.66;5037374;28;55190;-86
2024/01/14 00:29:51;;;;;;;;;0.00;0.00;;;;;1.80;100.00;101725.09;5059923;28;45318;-86
2024/01/14 00:32:16;;;;;;;;;0.00;0.00;;;;;1.78;100.00;101716.50;5077738;28;46224;-86
2024/01/14 00:34:41;;;;;;;;;0.00;0.00;;;;;1.77;100.00;101715.66;5077604;28;45941;-86
2024/01/14 00:37:07;;;;;;;;;0.00;0.00;;;;;1.77;100.00;101714.78;5077974;28;45348;-86
2024/01/14 00:39:39;;;;;;;;;0.00;0.00;;;;;1.73;100.00;101721.56;5059827;28;45566;-85
2024/01/14 00:42:07;;;;;;;;;0.00;0.00;;;;;1.73;100.00;101706.16;5042343;28;47708;-85
2024/01/14 00:44:32;;;;;;;;;0.00;0.00;;;;;1.75;100.00;101707.03;5059401;27;46072;-85
2024/01/14 00:46:58;;;;;;;;;0.00;0.00;;;;;1.76;100.00;101702.78;5076076;27;45404;-86
2024/01/14 00:49:23;;;;;;;;;0.00;0.00;;;;;1.77;100.00;101699.38;5068649;28;45547;-85
2024/01/14 00:51:49;;;;;;;;;0.00;0.00;;;;;1.74;100.00;101680.47;5042630;28;47468;-85
2024/01/14 00:54:14;;;;;;;;;21.00;21.00;;;;;1.76;100.00;101690.78;5042403;28;55922;-86
2024/01/14 00:56:39;;;;;;;;;7.00;6.50;;;;;1.74;100.00;101677.06;5042452;28;45379;-85
2024/01/14 00:59:05;;;;;;;;;15.00;15.00;;;;;1.72;100.00;101679.59;5059238;28;45299;-86
2024/01/14 01:01:31;;;;;;;;;0.75;0.75;;;;;1.73;100.00;101681.34;5039110;28;47318;-85
2024/01/14 01:03:56;;;;;;;;;0.00;0.00;;;;;1.68;100.00;101674.38;5039487;28;45684;-86
2024/01/14 01:06:21;;;;;;;;;0.50;0.50;;;;;1.66;100.00;101676.03;5039313;28;45352;-86
2024/01/14 01:08:47;;;;;;;;;0.00;0.00;;;;;1.63;100.00;101665.69;5039870;28;45783;-85
2024/01/14 01:11:15;;;;;;;;;0.00;0.00;;;;;1.64;100.00;101670.88;5057170;28;46037;-85
2024/01/14 01:13:41;;;;;;;;;0.00;0.00;;;;;1.60;100.00;101663.94;5056821;28;45403;-86
2024/01/14 01:16:06;;;;;;;;;0.00;0.00;;;;;1.54;100.00;101666.34;5038493;28;45653;-85
2024/01/14 01:18:32;;;;;;;;;0.00;0.00;;;;;1.52;100.00;101668.00;5032879;28;50054;-86
2024/01/14 01:20:57;;;;;;;;;0.00;0.00;;;;;1.49;100.00;101668.81;5044655;28;46146;-84
2024/01/14 01:23:22;;;;;;;;;0.00;0.00;;;;;1.51;100.00;101677.41;5059131;28;45374;-86
2024/01/14 01:25:48;;;;;;;;;12.00;12.00;;;;;1.45;100.00;101676.38;5059013;28;45371;-86
2024/01/14 01:28:13;;;;;;;;;0.00;0.00;;;;;1.41;100.00;101678.03;5043021;28;45452;-86
2024/01/14 01:30:39;;;;;;;;;0.00;0.00;;;;;1.42;100.00;101677.19;5058891;28;46004;-86
2024/01/14 01:33:04;;;;;;;;;0.00;0.00;;;;;1.43;100.00;101675.47;5041989;28;45748;-86
2024/01/14 01:35:29;;;;;;;;;0.50;0.50;;;;;1.44;100.00;101665.25;5058688;28;45406;-86
2024/01/14 01:37:55;;;;;;;;;0.00;0.00;;;;;1.41;100.00;101670.34;5076125;28;45815;-85
2024/01/14 01:40:21;;;;;;;;;0.00;0.00;;;;;1.45;100.00;101671.25;5057896;28;64305;-85
2024/01/14 01:42:49;;;;;;;;;0.00;0.00;;;;;1.40;100.00;101667.75;5042050;28;45704;-85
2024/01/14 01:45:15;;;;;;;;;0.00;0.00;;;;;1.37;100.00;101663.38;5042078;28;45369;-85
2024/01/14 01:47:40;;;;;;;;;13.50;13.50;;;;;1.38;100.00;101662.56;5076664;28;45393;-86
2024/01/14 01:50:07;;;;;;;;;0.00;0.00;;;;;1.38;100.00;101659.13;5058417;28;45214;-86
2024/01/14 01:52:33;;;;;;;;;0.00;0.00;;;;;1.40;100.00;101645.50;5041789;28;45847;-85
2024/01/14 01:54:59;;;;;;;;;0.00;0.00;;;;;1.45;100.00;101643.03;5037783;28;45605;-85
2024/01/14 01:57:25;;;;;;;;;0.00;0.00;;;;;1.44;100.00;101652.44;5055433;28;45587;-86
2024/01/14 01:59:50;;;;;;;;;0.00;0.00;;;;;1.42;100.00;101646.41;5021221;28;47867;-85
2024/01/14 02:02:16;;;;;;;;;0.00;0.00;;;;;1.41;100.00;101644.69;5037796;28;51183;-85
2024/01/14 02:04:42;;;;;;;;;0.00;0.00;;;;;1.42;100.00;101635.28;5055278;28;45510;-85
2024/01/14 02:07:08;;;;;;;;;0.00;0.00;;;;;1.37;100.00;101635.16;5038580;28;45523;-86
2024/01/14 02:09:33;;;;;;;;;0.00;0.00;;;;;1.31;100.00;101629.91;5038445;28;46305;-86
2024/01/14 02:12:00;;;;;;;;;0.00;0.00;;;;;1.26;100.00;101631.47;5037903;28;45289;-85
2024/01/14 02:14:25;;;;;;;;;0.00;0.00;;;;;1.23;100.00;101631.44;5038279;28;45304;-85
2024/01/14 02:16:53;;;;;;;;;0.00;0.00;;;;;1.24;100.00;101618.63;5022028;28;45340;-86
2024/01/14 02:19:18;;;;;;;;;0.00;0.00;;;;;1.24;100.00;101615.19;5055938;28;45444;-86
2024/01/14 02:21:49;;;;;;;;;0.00;0.00;;;;;1.28;100.00;101622.13;5021502;28;45435;-86
2024/01/14 02:24:27;;;;;;;;;6.00;6.00;;;;;1.24;100.00;101618.63;5021539;28;45333;-86
2024/01/14 02:26:52;;;;;;;;;0.00;0.00;;;;;1.22;100.00;101611.72;5039930;28;45475;-86
2024/01/14 02:29:19;;;;;;;;;0.00;0.00;;;;;1.23;100.00;101610.91;5041380;28;46246;-85
2024/01/14 02:31:44;;;;;;;;;0.00;0.00;;;;;1.23;100.00;101606.63;5024540;28;45777;-85
2024/01/14 02:34:13;;;;;;;;;6.00;1.00;;;;;1.22;100.00;101609.16;5025236;28;45671;-86
2024/01/14 02:36:39;;;;;;;;;0.00;0.00;;;;;1.18;100.00;101604.78;5042398;28;45354;-86
2024/01/14 02:39:07;;;;;;;;;1.00;1.00;;;;;1.14;100.00;101602.16;5024485;28;47094;-86
2024/01/14 02:41:33;;;;;;;;;0.00;0.00;;;;;1.14;100.00;101599.59;5059462;28;45294;-86
2024/01/14 02:43:58;;;;;;;;;0.00;0.00;;;;;1.07;100.00;101587.44;5077276;28;45398;-85
2024/01/14 02:46:24;;;;;;;;;0.00;0.00;;;;;1.11;100.00;101578.13;5051171;28;45490;-85
2024/01/14 02:48:50;;;;;;;;;0.00;0.00;;;;;1.12;100.00;101585.00;5047520;28;47112;-85
2024/01/14 02:51:15;;;;;;;;;1.50;0.00;;;;;1.12;100.00;101577.31;5044525;28;45377;-85
2024/01/14 02:53:42;;;;;;;;;6.00;6.00;;;;;1.08;100.00;101572.94;5044622;28;45320;-85
2024/01/14 02:56:07;;;;;;;;;0.00;0.00;;;;;1.07;100.00;101584.88;5061575;28;45489;-85
2024/01/14 02:58:35;;;;;;;;;0.00;0.00;;;;;1.08;100.00;101581.50;5043913;27;48370;-86
2024/01/14 03:01:00;;;;;;;;;0.00;0.00;;;;;1.04;100.00;101572.00;5078057;28;45289;-85
2024/01/14 03:03:26;;;;;;;;;0.00;0.00;;;;;1.07;100.00;101566.06;5061332;28;45335;-85
2024/01/14 03:05:51;;;;;;;;;0.00;0.00;;;;;1.08;100.00;101571.25;5079507;28;45354;-86
2024/01/14 03:08:18;;;;;;;;;0.00;0.00;;;;;1.05;100.00;101563.47;5061185;28;47533;-86
2024/01/14 03:10:43;;;;;;;;;0.00;0.00;;;;;1.02;100.00;101562.53;5079212;28;45366;-86
2024/01/14 03:13:09;;;;;;;;;3.00;3.00;;;;;1.02;100.00;101560.81;5079232;28;45301;-85
2024/01/14 03:15:34;;;;;;;;;0.00;0.00;;;;;1.00;100.00;101557.34;5060188;28;45362;-84
2024/01/14 03:18:00;;;;;;;;;0.00;0.00;;;;;1.02;100.00;101570.22;5078613;28;45553;-85
2024/01/14 03:20:25;;;;;;;;;0.00;0.00;;;;;1.00;100.00;101569.31;5078867;28;45403;-85
2024/01/14 03:22:50;;;;;;;;;0.00;0.00;;;;;0.94;100.00;101557.22;5043768;28;45526;-86
2024/01/14 03:25:16;;;;;;;;;0.00;0.00;;;;;0.94;100.00;101558.09;5060969;28;45538;-85
2024/01/14 03:27:41;;;;;;;;;1.00;1.00;;;;;0.91;100.00;101557.13;5078421;28;46217;-86
2024/01/14 03:30:07;;;;;;;;;0.00;0.00;;;;;0.91;100.00;101558.03;5060695;28;47824;-86
2024/01/14 03:32:33;;;;;;;;;0.00;0.00;;;;;0.89;100.00;101553.69;5061052;27;45461;-86
2024/01/14 03:34:58;;;;;;;;;0.00;0.00;;;;;0.84;100.00;101543.34;5061008;28;45428;-86
2024/01/14 03:37:23;;;;;;;;;0.00;0.00;;;;;0.87;100.00;101543.38;5073726;28;48212;-86
2024/01/14 03:39:49;;;;;;;;;3.00;3.00;;;;;0.89;100.00;101551.13;5058685;28;45331;-86
2024/01/14 03:42:15;;;;;;;;;0.00;0.00;;;;;0.81;100.00;101535.56;5043621;28;45272;-86
2024/01/14 03:44:41;;;;;;;;;0.00;0.00;;;;;0.75;100.00;101537.97;5078593;28;45449;-86
2024/01/14 03:47:07;;;;;;;;;0.00;0.00;;;;;0.76;100.00;101539.69;5077327;28;48011;-86
2024/01/14 03:49:33;;;;;;;;;0.00;0.00;;;;;0.72;100.00;101540.47;5047918;28;46057;-86
2024/01/14 03:51:58;;;;;;;;;2.25;2.25;;;;;0.69;100.00;101543.81;5041033;28;45439;-86
2024/01/14 03:54:24;;;;;;;;;0.00;0.00;;;;;0.67;100.00;101530.13;5048441;28;45250;-86
2024/01/14 03:56:49;;;;;;;;;0.00;0.00;;;;;0.65;100.00;101526.66;5043789;28;47335;-86
2024/01/14 03:59:15;;;;;;;;;0.00;0.00;;;;;0.62;100.00;101524.00;5060639;28;45324;-86
2024/01/14 04:01:42;;;;;;;;;0.00;0.00;;;;;0.67;100.00;101521.53;5043955;28;45328;-86
2024/01/14 04:04:08;;;;;;;;;9.00;9.00;;;;;0.66;100.00;101515.56;5079004;27;45416;-86
2024/01/14 04:06:40;;;;;;;;;0.25;0.25;;;;;0.68;100.00;101508.75;5043128;28;58889;-86
2024/01/14 04:09:06;;;;;;;;;18.75;18.75;;;;;0.66;100.00;101505.31;5044312;28;45372;-86
2024/01/14 04:11:31;;;;;;;;;0.00;0.00;;;;;0.68;100.00;101500.22;5052090;28;48345;-86
2024/01/14 04:13:57;;;;;;;;;24.25;13.50;;;;;0.61;100.00;101493.22;5040437;28;45328;-86
2024/01/14 04:16:22;;;;;;;;;30.00;15.75;;;;;0.62;100.00;101492.41;5056820;28;48246;-86
2024/01/14 04:18:48;;;;;;;;;43.50;39.75;;;;;0.59;100.00;101490.59;5040262;28;45377;-86
2024/01/14 04:21:23;;;;;;;;;0.00;0.00;;;;;0.58;100.00;101492.31;5023237;28;45953;-86
2024/01/14 04:23:49;;;;;;;;;0.00;0.00;;;;;0.54;100.00;101484.53;5040377;28;45253;-86
2024/01/14 04:26:14;;;;;;;;;19.00;19.00;;;;;0.54;100.00;101487.09;5039225;28;47117;-86
2024/01/14 04:28:39;;;;;;;;;24.00;24.00;;;;;0.51;100.00;101485.31;5046934;28;45248;-86
2024/01/14 04:31:05;;;;;;;;;0.00;0.00;;;;;0.54;100.00;101482.81;5023087;28;45554;-86
2024/01/14 04:33:31;;;;;;;;;0.00;0.00;;;;;0.56;100.00;101482.88;5023181;28;45332;-86
2024/01/14 04:35:56;;;;;;;;;0.00;0.00;;;;;0.54;100.00;101482.81;5039852;28;46907;-86
2024/01/14 04:38:22;;;;;;;;;0.00;0.00;;;;;0.55;100.00;101483.69;5039598;28;45328;-86
2024/01/14 04:40:47;;;;;;;;;0.00;0.00;;;;;0.56;100.00;101491.41;5039165;28;45520;-86
2024/01/14 04:43:12;;;;;;;;;0.00;0.00;;;;;0.56;100.00;101486.28;5057373;28;52226;-86
2024/01/14 04:45:38;;;;;;;;;0.00;0.00;;;;;0.61;100.00;101483.81;5076421;27;46811;-86
2024/01/14 04:48:04;;;;;;;;;0.00;0.00;;;;;0.64;100.00;101481.34;5042878;28;45512;-86
2024/01/14 04:50:30;;;;;;;;;0.00;0.00;;;;;0.70;100.00;101478.06;5077034;28;45476;-87
2024/01/14 04:52:55;;;;;;;;;0.00;0.00;;;;;0.67;100.00;101475.41;5042836;28;45328;-86
2024/01/14 04:55:21;;;;;;;;;0.00;0.00;;;;;0.67;100.00;101488.22;5058961;28;48270;-86
2024/01/14 04:57:48;;;;;;;;;0.00;0.00;;;;;0.63;100.00;101476.19;5042572;28;45324;-85
2024/01/14 05:00:14;;;;;;;;;0.00;0.00;;;;;0.68;100.00;101482.28;5062232;28;45296;-86
2024/01/14 05:02:39;;;;;;;;;0.00;0.00;;;;;0.73;100.00;101478.13;5022892;28;45460;-86
2024/01/14 05:05:05;;;;;;;;;0.00;0.00;;;;;0.76;100.00;101485.88;5022415;28;51510;-85
2024/01/14 05:07:30;;;;;;;;;0.00;0.00;;;;;0.76;100.00;101470.50;5022673;28;45522;-87
2024/01/14 05:09:56;;;;;;;;;0.00;0.00;;;;;0.77;100.00;101467.13;5022357;28;45451;-87
2024/01/14 05:12:22;;;;;;;;;0.00;0.00;;;;;0.76;100.00;101468.84;5022838;28;45268;-86
2024/01/14 05:14:47;;;;;;;;;82.00;69.00;;;;;0.75;100.00;101471.34;5040323;28;47182;-86
2024/01/14 05:17:12;;;;;;;;;0.00;0.00;;;;;0.76;100.00;101471.38;5059038;28;45483;-86
2024/01/14 05:19:41;;;;;;;;;0.00;0.00;;;;;0.80;100.00;101466.31;5077251;28;45316;-86
2024/01/14 05:22:09;;;;;;;;;0.00;0.00;;;;;0.80;100.00;101469.75;5059518;28;45293;-86
2024/01/14 05:24:34;;;;;;;;;1.00;1.00;;;;;0.82;100.00;101454.41;5077008;28;46411;-86
2024/01/14 05:27:00;;;;;;;;;0.00;0.00;;;;;0.87;100.00;101471.59;5042234;28;59053;-86
2024/01/14 05:29:25;;;;;;;;;0.00;0.00;;;;;0.86;100.00;101457.06;5059885;28;45495;-86
2024/01/14 05:31:50;;;;;;;;;0.00;0.00;;;;;0.92;100.00;101459.78;5059131;28;45512;-86
2024/01/14 05:34:16;;;;;;;;;0.00;0.00;;;;;0.94;100.00;101462.38;5060721;28;45501;-86
2024/01/14 05:36:41;;;;;;;;;0.00;0.00;;;;;0.92;100.00;101467.47;5041814;28;45873;-86
2024/01/14 05:39:06;;;;;;;;;0.00;0.00;;;;;0.92;100.00;101457.22;5051478;28;53155;-86
2024/01/14 05:41:32;;;;;;;;;0.00;0.00;;;;;0.91;100.00;101462.28;5079011;28;45442;-87
2024/01/14 05:43:57;;;;;;;;;0.00;0.00;;;;;0.92;100.00;101462.34;5061527;27;53157;-86
2024/01/14 05:46:23;;;;;;;;;0.00;0.00;;;;;0.89;100.00;101453.72;5091115;27;45405;-87
2024/01/14 05:48:49;;;;;;;;;0.00;0.00;;;;;0.92;100.00;101464.91;5079139;28;44736;-84
2024/01/14 05:51:15;;;;;;;;;0.00;0.00;;;;;0.90;100.00;101458.03;5094392;28;44742;-88
2024/01/14 05:53:42;;;;;;;;;0.00;0.00;;;;;0.94;100.00;101462.38;5057552;28;47155;-85
2024/01/14 05:56:08;;;;;;;;;0.00;0.00;;;;;0.95;100.00;101461.56;5057109;28;62159;-86
2024/01/14 05:58:34;;;;;;;;;7.00;7.00;;;;;0.94;100.00;101454.69;5056577;28;45458;-85
2024/01/14 06:01:00;;;;;;;;;0.00;0.00;;;;;0.96;100.00;101455.56;5066566;28;45260;-85
2024/01/14 06:03:26;;;;;;;;;1.00;1.00;;;;;0.94;100.00;101455.53;5065234;28;45778;-85
2024/01/14 06:05:51;;;;;;;;;0.00;0.00;;;;;1.00;100.00;101457.38;5075074;28;45380;-85
2024/01/14 06:08:16;;;;;;;;;0.00;0.00;;;;;1.00;100.00;101453.94;5067127;28;64646;-91
2024/01/14 06:10:42;;;;;;;;;0.00;0.00;;;;;1.00;100.00;101459.06;5063398;28;61564;-89
2024/01/14 06:13:07;;;;;;;;;3.00;3.00;;;;;0.96;100.00;101453.00;5048418;28;46886;-89
2024/01/14 06:15:32;;;;;;;;;0.00;0.00;;;;;0.96;100.00;101453.00;5063003;28;62422;-85
2024/01/14 06:17:58;;;;;;;;;4.00;4.00;;;;;0.93;100.00;101452.97;5064081;28;45320;-89
2024/01/14 06:20:23;;;;;;;;;0.00;0.00;;;;;0.89;100.00;101451.16;5081516;28;45333;-89
2024/01/14 06:22:49;;;;;;;;;0.00;0.00;;;;;0.87;100.00;101451.09;5044280;28;59968;-86
2024/01/14 06:25:14;;;;;;;;;0.00;0.00;;;;;0.90;100.00;101446.06;5060749;28;45386;-86
2024/01/14 06:27:39;;;;;;;;;0.00;0.00;;;;;0.87;100.00;101445.97;5061752;28;45385;-85
2024/01/14 06:30:05;;;;;;;;;3.00;3.00;;;;;0.88;100.00;101444.31;5061113;28;61124;-86
2024/01/14 06:32:33;;;;;;;;;0.00;0.00;;;;;0.88;100.00;101447.72;5061286;28;47315;-86
2024/01/14 06:34:59;;;;;;;;;0.00;0.00;;;;;0.92;100.00;101449.50;5043584;28;70040;-86
2024/01/14 06:37:25;;;;;;;;;0.00;0.00;;;;;0.95;100.00;101443.59;5078491;28;45227;-85
2024/01/14 06:39:50;;;;;;;;;0.00;0.00;;;;;0.95;100.00;101441.91;5057135;28;45403;-88
2024/01/14 06:42:16;;;;;;;;;0.00;0.00;;;;;0.98;100.00;101446.22;5044562;28;49217;-86
2024/01/14 06:44:41;;;;;;;;;0.00;0.00;;;;;0.98;100.00;101446.22;5044722;27;45338;-89
2024/01/14 06:47:06;;;;;;;;;0.00;0.00;;;;;0.99;100.00;101444.53;5062315;28;45630;-90
2024/01/14 06:49:32;;;;;;;;;0.00;0.00;;;;;1.00;100.00;101447.13;5062030;28;45500;-90
2024/01/14 06:51:57;;;;;;;;;0.00;0.00;;;;;0.98;100.00;101442.81;5045028;28;58160;-89
2024/01/14 06:54:23;;;;;;;;;0.00;0.00;;;;;0.92;100.00;101448.66;5061097;28;62732;-89
2024/01/14 06:56:48;;;;;;;;;0.00;0.00;;;;;0.88;100.00;101442.59;5041397;28;45606;-89
2024/01/14 06:59:17;;;;;;;;;0.00;0.00;;;;;0.91;100.00;101444.34;5041796;28;45307;-91
2024/01/14 07:01:43;;;;;;;;;0.00;0.00;;;;;0.88;100.00;101450.28;5041925;28;46502;-88
2024/01/14 07:04:08;;;;;;;;;0.00;0.00;;;;;0.89;100.00;101446.00;5058363;28;45415;-86
2024/01/14 07:06:33;;;;;;;;;0.00;0.00;;;;;0.92;100.00;101446.94;5064455;28;45461;-86
2024/01/14 07:08:59;;;;;;;;;0.00;0.00;;;;;0.93;100.00;101441.00;5080684;27;45532;-86
2024/01/14 07:11:24;;;;;;;;;0.00;0.00;;;;;0.92;100.00;101431.56;5075794;28;46315;-86
2024/01/14 07:13:49;;;;;;;;;9.50;9.50;;;;;0.91;100.00;101439.22;5060763;28;45271;-87
2024/01/14 07:16:15;;;;;;;;;0.00;0.00;;;;;0.87;100.00;101424.63;5066694;27;45492;-88
2024/01/14 07:18:41;;;;;;;;;0.00;0.00;;;;;0.87;100.00;101425.47;5061010;28;45345;-87
2024/01/14 07:21:10;;;;;;;;;2.25;2.25;;;;;0.89;100.00;101426.41;5078628;28;46518;-88
2024/01/14 07:23:37;;;;;;;;;0.00;0.00;;;;;0.96;100.00;101429.94;5061004;28;45332;-88
2024/01/14 07:26:05;;;;;;;;;0.00;0.00;;;;;0.90;100.00;101425.53;5058197;28;45371;-88
2024/01/14 07:28:31;;;;;;;;;0.00;0.00;;;;;0.92;100.00;101421.31;5025326;28;45314;-87
2024/01/14 07:30:57;;;;;;;;;0.00;0.00;;;;;0.91;100.00;101422.16;5069542;27;45366;-88
2024/01/14 07:33:24;;;;;;;;;0.00;0.00;;;;;0.92;100.00;101420.47;5060221;28;45636;-88
2024/01/14 07:35:49;;;;;;;;;1.00;1.00;;;;;0.96;100.00;101417.13;5052803;27;45347;-90
2024/01/14 07:38:15;;;;;;;;;0.00;0.00;;;;;1.00;100.00;101418.91;5089783;27;45297;-89
2024/01/14 07:40:41;;;;;;;;;0.00;0.00;;;;;1.01;100.00;101430.91;5043121;28;60572;-86
2024/01/14 07:43:07;;;;;;;;;0.00;0.00;;;;;1.02;100.00;101430.06;5066845;28;45571;-86
2024/01/14 07:45:33;;;;;;;;;0.00;0.00;;;;;0.98;100.00;101425.72;5077546;27;45283;-86
2024/01/14 07:47:58;;;;;;;;;3.25;3.25;;;;;0.99;100.00;101422.31;5069515;28;45166;-86
2024/01/14 07:50:23;;;;;;;;;0.00;0.00;;;;;1.03;100.00;101423.25;5041391;27;47290;-86
2024/01/14 07:52:50;;;;;;;;;0.25;0.25;;;;;1.02;100.00;101429.22;5061287;27;45221;-88
2024/01/14 07:55:15;;;;;;;;;0.00;0.00;;;;;1.02;100.00;101430.06;5068088;28;45363;-87
2024/01/14 07:57:41;;;;;;;;;0.00;0.00;;;;;1.04;100.00;101432.66;5078065;28;45390;-89
2024/01/14 08:00:07;;;;;;;;;0.00;0.00;;;;;1.06;100.00;101437.00;5040533;28;47338;-86
2024/01/14 08:02:32;;;;;;;;;0.00;0.00;;;;;1.04;100.00;101431.00;5079146;27;45268;-91
2024/01/14 08:04:58;;;;;;;;;0.00;0.00;;;;;1.07;100.00;101432.75;5041468;28;45403;-89
2024/01/14 08:07:23;;;;;;;;;2.00;2.00;;;;;1.06;100.00;101431.88;5087563;27;45569;-91
2024/01/14 08:09:49;;;;;;;;;0.00;0.00;;;;;1.07;100.00;101432.75;5061220;28;46245;-92
2024/01/14 08:12:14;;;;;;;;;0.00;0.00;;;;;1.08;100.00;101431.91;5055511;27;64704;-89
2024/01/14 08:14:46;;;;;;;;;0.00;0.00;;;;;1.10;100.00;101435.38;5063688;27;45444;-89
2024/01/14 08:17:11;;;;;;;;;3.00;3.00;;;;;1.13;100.00;101438.88;5077669;28;50800;-91
2024/01/14 08:19:37;;;;;;;;;0.00;0.00;;;;;1.15;100.00;101438.88;5085220;27;46073;-90
2024/01/14 08:22:20;;;;;;;;;4.00;0.00;;;;;1.13;100.00;101436.31;5043786;28;45492;-90
2024/01/14 08:24:45;;;;;;;;;0.00;0.00;;;;;1.13;100.00;101435.44;5042964;28;45227;-88
2024/01/14 08:27:10;;;;;;;;;9.00;9.00;;;;;1.15;100.00;101437.22;5069160;27;45325;-85
2024/01/14 08:29:36;;;;;;;;;1.00;1.00;;;;;1.15;100.00;101429.50;5045566;28;48052;-87
2024/01/14 08:32:02;;;;;;;;;0.00;0.00;;;;;1.18;100.00;101432.97;5022254;28;59766;-86
2024/01/14 08:34:28;;;;;;;;;0.00;0.00;;;;;1.23;100.00;101431.38;5046839;27;63402;-86
2024/01/14 08:36:53;;;;;;;;;0.00;0.00;;;;;1.24;100.00;101435.66;5053567;27;45360;-87
2024/01/14 08:39:18;;;;;;;;;0.00;0.00;;;;;1.23;100.00;101434.78;5042234;28;47560;-87
2024/01/14 08:41:44;;;;;;;;;6.33;6.33;;;;;1.28;100.00;101435.75;5041998;28;66009;-87
2024/01/14 08:44:10;;;;;;;;;0.00;0.00;;;;;1.24;100.00;101428.81;5058728;28;45491;-92
2024/01/14 08:46:39;;;;;;;;;0.00;0.00;;;;;1.24;100.00;101440.78;5059050;28;45337;-87
2024/01/14 08:49:05;;;;;;;;;0.00;0.00;;;;;1.21;100.00;101425.31;5070921;28;46524;-88
2024/01/14 08:52:12;;;;;;;;;;;;;;;;;;;;;
2024/01/14 08:55:14;;;;;;;;;0.00;0.00;;;;;1.22;100.00;101414.25;5040167;28;69177;-92
2024/01/14 08:57:55;;;;;;;;;0.00;0.00;;;;;1.22;100.00;101417.66;5068432;28;45318;-92
2024/01/14 09:00:40;;;;;;;;;0.00;0.00;;;;;1.34;100.00;101420.50;5096202;27;47249;-92
2024/01/14 09:03:08;;;;;;;;;1.00;1.00;;;;;1.36;100.00;101410.25;5081817;27;45351;-87
2024/01/14 09:05:43;;;;;;;;;1.50;1.50;;;;;1.40;100.00;101403.50;5059922;27;45463;-90
2024/01/14 09:08:18;;;;;;;;;0.00;0.00;;;;;1.42;100.00;101397.53;5040326;28;45467;-89
2024/01/14 09:10:46;;;;;;;;;1.00;1.00;;;;;1.40;100.00;101394.09;5038774;28;47942;-89
2024/01/14 09:13:14;;;;;;;;;0.00;0.00;;;;;1.42;100.00;101391.56;5023826;28;45667;-89
2024/01/14 09:15:41;;;;;;;;;0.00;0.00;;;;;1.41;100.00;101384.69;5050449;27;45563;-87
2024/01/14 09:18:06;;;;;;;;;0.00;0.00;;;;;1.42;100.00;101384.72;5044695;27;45431;-86
2024/01/14 09:20:32;;;;;;;;;0.00;0.00;;;;;1.40;100.00;101380.41;5062359;27;56583;-89
2024/01/14 09:22:57;;;;;;;;;0.00;0.00;;;;;1.43;100.00;101383.91;5095289;27;45410;-86
2024/01/14 09:25:23;;;;;;;;;0.00;0.00;;;;;1.43;100.00;101381.34;5058448;28;45258;-85
2024/01/14 09:27:48;;;;;;;;;1.00;1.00;;;;;1.43;100.00;101376.19;5059804;27;67224;-83
2024/01/14 09:30:14;;;;;;;;;0.00;0.00;;;;;1.46;100.00;101381.38;5060574;27;48345;-82
2024/01/14 09:32:39;;;;;;;;;0.00;0.00;;;;;1.47;100.00;101384.81;5068916;28;45300;-80
2024/01/14 09:35:05;;;;;;;;;0.00;0.00;;;;;1.46;100.00;101386.50;5084965;27;49427;-79
2024/01/14 09:37:30;;;;;;;;;0.00;0.00;;;;;1.43;100.00;101378.75;5098242;27;45570;-81
2024/01/14 09:39:55;;;;;;;;;0.00;0.00;;;;;1.42;100.00;101376.16;5063774;27;70689;-80
2024/01/14 09:42:34;;;;;;;;;0.00;0.00;;;;;1.39;100.00;101381.22;5058977;28;73617;-80
2024/01/14 09:45:00;;;;;;;;;0.00;0.00;;;;;1.35;100.00;101375.16;5066754;27;45553;-83
2024/01/14 09:47:26;;;;;;;;;0.00;0.00;;;;;1.33;100.00;101377.69;5090538;27;45427;-84
2024/01/14 09:49:53;;;;;;;;;0.00;0.00;;;;;1.37;100.00;101377.78;5046468;28;47976;-83
2024/01/14 09:52:21;;;;;;;;;0.00;0.00;;;;;1.37;100.00;101378.63;5078544;27;45594;-84
2024/01/14 09:54:46;;;;;;;;;0.00;0.00;;;;;1.41;100.00;101380.44;5061010;28;45340;-83
2024/01/14 09:57:12;;;;;;;;;0.67;0.67;;;;;1.42;100.00;101379.59;5079508;27;66163;-83
2024/01/14 09:59:39;;;;;;;;;5.25;5.25;;;;;1.44;100.00;101384.75;5061250;27;46219;-83
2024/01/14 10:02:05;;;;;;;;;0.00;0.00;;;;;1.43;100.00;101381.34;5060910;28;45394;-80
2024/01/14 10:04:31;;;;;;;;;0.00;0.00;;;;;1.40;100.00;101381.25;5068233;27;66102;-82
2024/01/14 10:06:56;;;;;;;;;1.00;1.00;;;;;1.36;100.00;101379.47;5050764;28;45432;-83
2024/01/14 10:09:23;;;;;;;;;0.00;0.00;;;;;1.37;100.00;101381.19;5053293;28;75923;-81
2024/01/14 10:11:49;;;;;;;;;9.25;9.25;;;;;1.41;100.00;101380.44;5069299;27;45420;-82
2024/01/14 10:14:15;;;;;;;;;0.25;0.25;;;;;1.45;100.00;101381.34;5059721;28;50651;-82
2024/01/14 10:16:40;;;;;;;;;3.00;3.00;;;;;1.45;100.00;101371.97;5063565;27;45647;-82
2024/01/14 10:19:06;;;;;;;;;0.00;0.00;;;;;1.46;100.00;101372.81;5067073;27;46209;-81
2024/01/14 10:21:32;;;;;;;;;1.00;1.00;;;;;1.53;100.00;101375.50;5060854;28;45765;-82
2024/01/14 10:23:59;;;;;;;;;0.00;0.00;;;;;1.57;100.00;101367.88;5052475;28;66708;-83
2024/01/14 10:26:24;;;;;;;;;0.00;0.00;;;;;1.62;100.00;101367.13;5055836;28;46753;-82
2024/01/14 10:28:50;;;;;;;;;0.00;0.00;;;;;1.62;100.00;101358.56;5055956;27;46927;-81
2024/01/14 10:31:15;;;;;;;;;0.00;0.00;;;;;1.66;100.00;101363.78;5069076;28;66433;-82
2024/01/14 10:33:41;;;;;;;;;1.50;1.50;;;;;1.68;100.00;101364.66;5077714;28;45426;-82
2024/01/14 10:36:10;;;;;;;;;0.00;0.00;;;;;1.67;100.00;101357.81;5078469;28;45502;-82
2024/01/14 10:38:36;;;;;;;;;0.00;0.00;;;;;1.72;100.00;101356.16;5078137;28;46978;-83
2024/01/14 10:41:03;;;;;;;;;0.00;0.00;;;;;1.72;100.00;101350.19;5073117;28;45650;-83
2024/01/14 10:43:28;;;;;;;;;21.00;21.00;;;;;1.78;100.00;101339.16;5084698;27;45493;-83
2024/01/14 10:45:54;;;;;;;;;0.00;0.00;;;;;1.86;100.00;101327.31;5099326;27;45453;-83
2024/01/14 10:48:26;;;;;;;;;6.00;6.00;;;;;1.93;100.00;101332.59;5062348;27;46756;-83
2024/01/14 10:51:00;;;;;;;;;0.00;0.00;;;;;2.02;100.00;101324.13;5060390;28;45458;-83
2024/01/14 10:53:33;;;;;;;;;2.50;2.50;;;;;2.11;100.00;101323.41;5080680;27;45362;-83
2024/01/14 10:56:03;;;;;;;;;7.00;3.75;;;;;2.12;100.00;101315.75;5054981;28;45427;-83
2024/01/14 10:58:36;;;;;;;;;1.50;1.50;;;;;2.18;100.00;101311.56;5077375;27;46340;-83
2024/01/14 11:01:04;;;;;;;;;3.00;3.00;;;;;2.17;100.00;101309.81;5076772;27;45673;-81
2024/01/14 11:03:29;;;;;;;;;0.00;0.00;;;;;2.18;100.00;101302.13;5060412;28;45395;-83
2024/01/14 11:05:55;;;;;;;;;0.00;0.00;;;;;2.21;100.00;101299.63;5062331;27;45384;-83
2024/01/14 11:08:23;;;;;;;;;0.00;0.00;;;;;2.32;100.00;101289.47;5060281;28;46962;-83
2024/01/14 11:10:50;;;;;;;;;0.00;0.00;;;;;2.46;100.00;101289.66;5059733;27;45459;-83
2024/01/14 11:13:39;;;;;;;;;0.00;0.00;;;;;2.52;100.00;101275.19;5059377;27;45565;-83
2024/01/14 11:16:13;;;;;;;;;2.00;2.00;;;;;2.62;100.00;101285.56;5080230;27;45561;-83
2024/01/14 11:19:05;;;;;;;;;4.00;4.00;;;;;2.62;100.00;101265.00;5070075;27;47415;-83
2024/01/14 11:21:47;;;;;;;;;0.00;0.00;;;;;2.70;100.00;101260.84;5058239;28;45281;-84
2024/01/14 11:24:13;;;;;;;;;0.00;0.00;;;;;2.95;100.00;101251.69;5059985;28;45532;-83